createdAt,value
2022-11-16T00:02:12.849Z,15.50
2022-11-16T00:04:41.077Z,17.33
2022-11-16T00:07:08.937Z,15.77
2022-11-16T00:09:36.659Z,16.88
2022-11-16T00:12:07.279Z,16.55
2022-11-16T00:14:37.003Z,16.48
2022-11-16T00:17:05.051Z,16.70
2022-11-16T00:19:32.897Z,16.43
2022-11-16T00:22:00.586Z,16.95
2022-11-16T00:24:28.262Z,17.83
2022-11-16T00:26:56.375Z,17.92
2022-11-16T00:29:26.457Z,17.73
2022-11-16T00:31:55.387Z,16.97
2022-11-16T00:34:24.486Z,16.58
2022-11-16T00:36:52.716Z,17.00
2022-11-16T00:39:20.920Z,16.95
2022-11-16T00:41:49.469Z,17.38
2022-11-16T00:44:18.686Z,16.13
2022-11-16T00:46:46.629Z,17.35
2022-11-16T00:49:14.521Z,16.45
2022-11-16T00:51:42.210Z,16.48
2022-11-16T00:54:10.621Z,18.80
2022-11-16T00:56:39.780Z,18.00
2022-11-16T00:59:08.231Z,16.17
2022-11-16T01:01:36.127Z,17.90
2022-11-16T01:04:03.936Z,17.52
2022-11-16T01:06:31.593Z,16.95
2022-11-16T01:09:01.716Z,17.17
2022-11-16T01:11:47.860Z,17.88
2022-11-16T01:14:15.996Z,17.85
2022-11-16T01:16:44.503Z,17.80
2022-11-16T01:19:12.160Z,17.25
2022-11-16T01:21:39.894Z,17.93
2022-11-16T01:24:07.617Z,16.88
2022-11-16T01:26:35.269Z,17.92
2022-11-16T01:29:03.398Z,18.50
2022-11-16T01:31:35.394Z,17.58
2022-11-16T01:34:04.235Z,20.10
2022-11-16T01:36:32.312Z,18.05
2022-11-16T01:39:02.815Z,18.65
2022-11-16T01:41:36.503Z,19.55
2022-11-16T01:44:33.236Z,21.00
2022-11-16T01:47:17.250Z,17.43
2022-11-16T01:49:55.319Z,17.40
2022-11-16T01:52:34.277Z,18.20
2022-11-16T01:55:03.123Z,19.02
2022-11-16T01:57:44.347Z,17.65
2022-11-16T02:00:14.481Z,17.47
2022-11-16T02:02:45.649Z,18.52
2022-11-16T02:05:40.171Z,16.25
2022-11-16T02:08:50.606Z,16.05
2022-11-16T02:11:42.095Z,17.58
2022-11-16T02:14:52.779Z,17.67
2022-11-16T02:18:11.018Z,16.70
2022-11-16T02:21:08.593Z,16.15
2022-11-16T02:24:22.819Z,16.35
2022-11-16T02:27:06.779Z,16.02
2022-11-16T02:29:50.118Z,17.90
2022-11-16T02:32:41.175Z,15.75
2022-11-16T02:35:35.499Z,16.27
2022-11-16T02:38:20.973Z,16.65
2022-11-16T02:41:03.248Z,15.77
2022-11-16T02:43:38.380Z,16.57
2022-11-16T02:46:16.636Z,16.38
2022-11-16T02:48:51.414Z,17.20
2022-11-16T02:51:21.638Z,15.82
2022-11-16T02:54:16.083Z,15.23
2022-11-16T02:57:04.653Z,16.33
2022-11-16T02:59:40.827Z,16.70
2022-11-16T03:02:22.534Z,16.15
2022-11-16T03:05:03.061Z,17.20
2022-11-16T03:07:46.610Z,17.25
2022-11-16T03:10:36.562Z,17.17
2022-11-16T03:13:09.437Z,17.45
2022-11-16T03:15:40.178Z,17.58
2022-11-16T03:18:12.827Z,15.90
2022-11-16T03:20:43.314Z,16.85
2022-11-16T03:23:13.194Z,14.87
2022-11-16T03:25:52.952Z,17.52
2022-11-16T03:28:33.319Z,13.73
2022-11-16T03:31:11.379Z,14.95
2022-11-16T03:33:50.081Z,19.38
2022-11-16T03:36:26.719Z,13.67
2022-11-16T03:38:56.622Z,13.82
2022-11-16T03:41:27.503Z,13.10
2022-11-16T03:43:56.684Z,14.13
2022-11-16T03:46:24.920Z,14.80
2022-11-16T03:48:58.606Z,13.63
2022-11-16T03:51:31.093Z,16.15
2022-11-16T03:53:59.072Z,14.80
2022-11-16T03:56:26.812Z,14.20
2022-11-16T03:58:54.474Z,14.65
2022-11-16T04:01:22.345Z,16.73
2022-11-16T04:03:50.838Z,15.90
2022-11-16T04:06:38.685Z,16.75
2022-11-16T04:09:25.379Z,15.65
2022-11-16T04:12:11.620Z,14.73
2022-11-16T04:14:58.658Z,13.13
2022-11-16T04:17:48.218Z,14.55
2022-11-16T04:20:35.032Z,13.30
2022-11-16T04:23:31.959Z,13.00
2022-11-16T04:26:00.521Z,11.90
2022-11-16T04:28:32.593Z,15.27
2022-11-16T04:31:31.155Z,12.57
2022-11-16T04:34:22.931Z,10.63
2022-11-16T04:37:12.407Z,12.80
2022-11-16T04:39:41.464Z,11.63
2022-11-16T04:42:19.816Z,10.93
2022-11-16T04:45:09.043Z,10.82
2022-11-16T04:47:43.855Z,10.75
2022-11-16T04:50:12.163Z,11.52
2022-11-16T04:52:41.270Z,8.23
2022-11-16T04:55:12.438Z,9.77
2022-11-16T04:57:40.275Z,7.80
2022-11-16T05:00:09.514Z,10.57
2022-11-16T05:02:39.609Z,10.05
2022-11-16T05:05:08.335Z,9.63
2022-11-16T05:07:37.930Z,11.03
2022-11-16T05:10:15.405Z,11.43
2022-11-16T05:12:44.003Z,11.70
2022-11-16T05:15:11.938Z,10.23
2022-11-16T05:17:40.389Z,10.23
2022-11-16T05:20:32.008Z,11.30
2022-11-16T05:23:04.313Z,9.65
2022-11-16T05:25:37.125Z,10.40
2022-11-16T05:28:07.971Z,12.00
2022-11-16T05:30:39.828Z,12.95
2022-11-16T05:33:07.528Z,10.50
2022-11-16T05:35:39.305Z,12.82
2022-11-16T05:38:07.541Z,10.23
2022-11-16T05:40:40.083Z,10.50
2022-11-16T05:43:07.879Z,10.82
2022-11-16T05:45:41.091Z,9.73
2022-11-16T05:48:09.495Z,12.50
2022-11-16T05:50:42.317Z,10.43
2022-11-16T05:53:17.175Z,11.32
2022-11-16T05:55:44.927Z,12.18
2022-11-16T05:58:12.763Z,10.83
2022-11-16T06:00:40.488Z,11.70
2022-11-16T06:03:10.462Z,11.45
2022-11-16T06:05:40.692Z,11.77
2022-11-16T06:08:10.381Z,15.43
2022-11-16T06:10:38.037Z,15.00
2022-11-16T06:13:06.514Z,15.45
2022-11-16T06:15:38.406Z,24.13
2022-11-16T06:18:08.035Z,18.63
2022-11-16T06:20:39.560Z,20.20
2022-11-16T06:23:08.183Z,18.70
2022-11-16T06:25:39.660Z,18.60
2022-11-16T06:28:08.244Z,21.90
2022-11-16T06:30:38.410Z,17.65
2022-11-16T06:33:08.468Z,20.73
2022-11-16T06:35:37.496Z,20.77
2022-11-16T06:38:05.752Z,19.05
2022-11-16T06:40:33.917Z,23.13
2022-11-16T06:43:03.251Z,19.88
2022-11-16T06:45:31.220Z,19.23
2022-11-16T06:48:01.614Z,19.10
2022-11-16T06:50:29.323Z,23.02
2022-11-16T06:53:00.606Z,19.88
2022-11-16T06:55:29.543Z,22.67
2022-11-16T06:57:57.238Z,19.30
2022-11-16T07:00:24.956Z,22.00
2022-11-16T07:02:52.738Z,18.52
2022-11-16T07:05:20.449Z,23.52
2022-11-16T07:07:48.459Z,20.30
2022-11-16T07:10:16.460Z,19.40
2022-11-16T07:12:44.527Z,23.07
2022-11-16T07:15:13.842Z,18.77
2022-11-16T07:17:44.012Z,17.05
2022-11-16T07:20:14.795Z,17.92
2022-11-16T07:22:42.527Z,15.48
2022-11-16T07:25:13.734Z,15.47
2022-11-16T07:27:41.651Z,14.57
2022-11-16T07:30:09.996Z,13.10
2022-11-16T07:33:00.792Z,12.07
2022-11-16T07:35:47.241Z,12.55
2022-11-16T07:38:17.988Z,14.70
2022-11-16T07:40:46.453Z,17.30
2022-11-16T07:43:17.352Z,20.67
2022-11-16T07:48:58.976Z,9.73
2022-11-16T07:51:46.809Z,11.10
2022-11-16T07:54:31.375Z,9.65
2022-11-16T07:56:59.139Z,8.52
2022-11-16T07:59:27.447Z,9.07
2022-11-16T08:01:59.253Z,8.27
2022-11-16T08:04:27.725Z,9.10
2022-11-16T08:06:55.481Z,7.15
2022-11-16T08:09:24.073Z,7.95
2022-11-16T08:11:52.363Z,6.45
2022-11-16T08:14:20.362Z,6.45
2022-11-16T08:16:50.300Z,6.10
2022-11-16T08:19:18.611Z,5.78
2022-11-16T08:21:46.263Z,5.53
2022-11-16T08:24:15.816Z,5.85
2022-11-16T08:26:44.863Z,5.68
2022-11-16T08:29:15.778Z,5.57
2022-11-16T08:31:49.808Z,5.63
2022-11-16T08:34:22.470Z,5.38
2022-11-16T08:36:53.688Z,5.68
2022-11-16T08:39:27.159Z,7.15
2022-11-16T08:41:54.886Z,6.73
2022-11-16T08:44:22.547Z,6.70
2022-11-16T08:46:53.774Z,6.75
2022-11-16T08:49:32.670Z,6.93
2022-11-16T08:52:00.790Z,7.43
2022-11-16T08:54:30.514Z,8.47
2022-11-16T08:56:58.437Z,7.97
2022-11-16T08:59:27.175Z,7.43
2022-11-16T09:01:58.517Z,6.07
2022-11-16T09:04:26.217Z,7.57
2022-11-16T09:06:54.900Z,7.30
2022-11-16T09:09:22.748Z,6.90
2022-11-16T09:11:52.435Z,6.45
2022-11-16T09:14:20.091Z,6.68
2022-11-16T09:16:47.945Z,5.95
2022-11-16T09:19:15.621Z,5.97
2022-11-16T09:22:05.808Z,7.00
2022-11-16T09:24:34.240Z,6.32
2022-11-16T09:27:02.185Z,6.25
2022-11-16T09:29:30.916Z,5.45
2022-11-16T09:31:59.007Z,5.80
2022-11-16T09:34:26.708Z,5.63
2022-11-16T09:36:54.513Z,4.40
2022-11-16T09:39:31.496Z,5.10
2022-11-16T09:42:52.648Z,4.55
2022-11-16T09:46:05.425Z,4.27
2022-11-16T09:48:38.399Z,4.50
2022-11-16T09:51:11.884Z,4.15
2022-11-16T09:54:08.157Z,4.30
2022-11-16T09:56:41.124Z,3.90
2022-11-16T09:59:12.198Z,3.40
2022-11-16T10:02:27.150Z,3.35
2022-11-16T10:05:15.704Z,5.03
2022-11-16T10:08:21.574Z,3.88
2022-11-16T10:11:17.266Z,4.35
2022-11-16T10:14:28.737Z,3.57
2022-11-16T10:17:43.083Z,4.07
2022-11-16T10:20:44.843Z,3.22
2022-11-16T10:23:18.006Z,3.67
2022-11-16T10:25:58.940Z,3.00
2022-11-16T10:29:10.096Z,3.90
2022-11-16T10:31:54.621Z,3.58
2022-11-16T10:34:36.087Z,3.40
2022-11-16T10:37:08.337Z,2.95
2022-11-16T10:39:40.790Z,2.70
2022-11-16T10:42:39.776Z,3.87
2022-11-16T10:45:10.624Z,2.75
2022-11-16T10:48:09.065Z,3.42
2022-11-16T10:50:50.350Z,3.00
2022-11-16T10:53:36.578Z,2.55
2022-11-16T10:56:31.683Z,2.40
2022-11-16T10:59:01.883Z,3.45
2022-11-16T11:01:53.286Z,2.40
2022-11-16T11:04:29.307Z,2.85
2022-11-16T11:07:03.077Z,3.75
2022-11-16T11:09:33.109Z,3.00
2022-11-16T11:12:32.003Z,3.80
2022-11-16T11:15:11.672Z,3.08
2022-11-16T11:17:41.498Z,2.72
2022-11-16T11:20:23.909Z,2.90
2022-11-16T11:23:00.355Z,2.67
2022-11-16T11:25:36.137Z,3.38
2022-11-16T11:28:27.423Z,2.70
2022-11-16T11:31:33.662Z,2.70
2022-11-16T11:34:10.262Z,2.70
2022-11-16T11:36:44.060Z,2.90
2022-11-16T11:39:12.076Z,2.40
2022-11-16T11:41:45.710Z,2.65
2022-11-16T11:44:13.255Z,2.97
2022-11-16T11:50:14.184Z,2.90
2022-11-16T11:53:07.153Z,2.50
2022-11-16T11:55:35.449Z,2.63
2022-11-16T11:58:06.375Z,2.58
2022-11-16T12:00:55.286Z,2.55
2022-11-16T12:04:08.141Z,2.40
2022-11-16T12:06:57.070Z,2.40
2022-11-16T12:09:30.064Z,2.33
2022-11-16T12:12:21.647Z,2.50
2022-11-16T12:15:06.355Z,2.90
2022-11-16T12:18:09.382Z,2.60
2022-11-16T12:21:15.184Z,2.63
2022-11-16T12:23:54.393Z,3.20
2022-11-16T12:26:52.148Z,2.47
2022-11-16T12:30:00.230Z,2.90
2022-11-16T12:33:02.753Z,2.80
2022-11-16T12:35:54.313Z,3.30
2022-11-16T12:38:42.354Z,2.70
2022-11-16T12:41:47.262Z,2.60
2022-11-16T12:44:32.635Z,2.65
2022-11-16T12:47:26.248Z,2.17
2022-11-16T12:50:54.038Z,2.50
2022-11-16T12:53:54.344Z,2.22
2022-11-16T12:56:31.599Z,2.20
2022-11-16T12:59:50.904Z,2.10
2022-11-16T13:02:41.244Z,2.23
2022-11-16T13:05:22.323Z,2.70
2022-11-16T13:07:59.169Z,1.90
2022-11-16T13:10:34.363Z,2.08
2022-11-16T13:16:02.490Z,2.30
2022-11-16T13:18:32.678Z,1.85
2022-11-16T13:21:31.027Z,2.03
2022-11-16T13:24:30.309Z,2.05
2022-11-16T13:27:28.973Z,2.28
2022-11-16T13:30:22.484Z,1.47
2022-11-16T13:33:30.355Z,2.17
2022-11-16T13:35:58.043Z,2.13
2022-11-16T13:38:52.620Z,1.73
2022-11-16T13:41:37.195Z,2.25
2022-11-16T13:44:20.319Z,2.00
2022-11-16T13:46:56.828Z,2.65
2022-11-16T13:49:31.911Z,1.67
2022-11-16T13:52:22.510Z,1.83
2022-11-16T13:55:13.064Z,1.92
2022-11-16T13:57:51.687Z,2.40
2022-11-16T14:00:30.870Z,1.85
2022-11-16T14:03:16.594Z,1.85
2022-11-16T14:05:49.514Z,2.60
2022-11-16T14:08:19.885Z,2.40
2022-11-16T14:10:50.379Z,2.17
2022-11-16T14:13:41.021Z,2.72
2022-11-16T14:16:17.847Z,2.60
2022-11-16T14:19:00.350Z,2.67
2022-11-16T14:22:12.449Z,2.00
2022-11-16T14:24:52.764Z,2.93
2022-11-16T14:28:04.408Z,1.98
2022-11-16T14:31:02.134Z,1.85
2022-11-16T14:33:35.128Z,3.00
2022-11-16T14:36:09.203Z,1.95
2022-11-16T14:38:42.388Z,2.07
2022-11-16T14:41:22.625Z,2.05
2022-11-16T14:43:54.787Z,1.90
2022-11-16T14:46:42.636Z,2.00
2022-11-16T14:49:16.373Z,2.03
2022-11-16T14:51:52.796Z,2.20
2022-11-16T14:54:48.585Z,2.25
2022-11-16T14:57:22.753Z,2.50
2022-11-16T15:00:12.438Z,2.30
2022-11-16T15:02:41.388Z,2.28
2022-11-16T15:05:17.647Z,2.40
2022-11-16T15:07:49.717Z,3.13
2022-11-16T15:10:22.324Z,2.63
2022-11-16T15:12:52.821Z,2.65
2022-11-16T15:15:27.334Z,3.03
2022-11-16T15:18:00.705Z,2.43
2022-11-16T15:20:34.441Z,2.70
2022-11-16T15:23:05.618Z,3.72
2022-11-16T15:25:54.823Z,3.28
2022-11-16T15:28:28.920Z,2.80
2022-11-16T15:31:04.262Z,3.27
2022-11-16T15:33:38.050Z,3.08
2022-11-16T15:36:37.869Z,2.70
2022-11-16T15:39:28.621Z,3.17
2022-11-16T15:42:00.556Z,2.92
2022-11-16T15:44:32.804Z,3.27
2022-11-16T15:47:01.068Z,3.28
2022-11-16T15:49:40.739Z,3.83
2022-11-16T15:52:08.536Z,3.50
2022-11-16T15:54:55.436Z,3.53
2022-11-16T15:57:28.929Z,3.47
2022-11-16T15:59:57.484Z,3.90
2022-11-16T16:02:31.175Z,3.33
2022-11-16T16:04:58.828Z,3.67
2022-11-16T16:07:41.922Z,3.88
2022-11-16T16:10:18.648Z,3.63
2022-11-16T16:13:00.663Z,4.70
2022-11-16T16:15:40.143Z,5.97
2022-11-16T16:18:39.787Z,4.18
2022-11-16T16:21:08.219Z,4.00
2022-11-16T16:23:49.099Z,4.67
2022-11-16T16:26:18.240Z,4.40
2022-11-16T16:28:46.492Z,4.97
2022-11-16T16:31:14.587Z,4.50
2022-11-16T16:33:42.316Z,4.07
2022-11-16T16:36:13.308Z,4.00
2022-11-16T16:38:41.068Z,5.50
2022-11-16T16:41:23.721Z,5.95
2022-11-16T16:43:52.098Z,5.85
2022-11-16T16:46:20.020Z,5.10
2022-11-16T16:48:47.742Z,5.47
2022-11-16T16:51:15.373Z,6.85
2022-11-16T16:53:43.025Z,6.03
2022-11-16T16:56:17.611Z,6.93
2022-11-16T16:58:45.501Z,5.90
2022-11-16T17:01:13.311Z,6.73
2022-11-16T17:03:41.031Z,5.30
2022-11-16T17:06:09.063Z,4.65
2022-11-16T17:08:38.067Z,3.58
2022-11-16T17:11:05.736Z,4.43
2022-11-16T17:13:33.732Z,4.60
2022-11-16T17:16:05.653Z,4.10
2022-11-16T17:18:33.388Z,4.57
2022-11-16T17:21:09.038Z,5.18
2022-11-16T17:23:37.632Z,4.82
2022-11-16T17:26:07.623Z,3.83
2022-11-16T17:28:35.747Z,4.20
2022-11-16T17:31:07.616Z,4.13
2022-11-16T17:33:41.023Z,4.28
2022-11-16T17:36:12.559Z,4.20
2022-11-16T17:38:40.514Z,3.27
2022-11-16T17:41:14.760Z,4.38
2022-11-16T17:43:44.748Z,4.50
2022-11-16T17:46:18.211Z,4.32
2022-11-16T17:48:47.742Z,4.38
2022-11-16T17:51:21.809Z,4.30
2022-11-16T17:53:49.764Z,4.93
2022-11-16T17:56:25.924Z,4.78
2022-11-16T17:58:55.007Z,4.40
2022-11-16T18:01:23.784Z,5.18
2022-11-16T18:03:51.745Z,5.10
2022-11-16T18:06:22.454Z,5.03
2022-11-16T18:09:03.813Z,5.55
2022-11-16T18:11:31.462Z,5.18
2022-11-16T18:14:01.008Z,4.72
2022-11-16T18:16:31.749Z,5.20
2022-11-16T18:19:05.520Z,4.70
2022-11-16T18:21:40.100Z,4.55
2022-11-16T18:24:08.485Z,5.15
2022-11-16T18:26:37.210Z,4.97
2022-11-16T18:29:05.179Z,5.10
2022-11-16T18:31:33.916Z,5.40
2022-11-16T18:34:02.706Z,5.18
2022-11-16T18:36:30.390Z,4.95
2022-11-16T18:38:58.037Z,4.38
2022-11-16T18:41:28.090Z,5.20
2022-11-16T18:43:58.881Z,4.95
2022-11-16T18:46:29.899Z,4.80
2022-11-16T18:48:58.671Z,6.20
2022-11-16T18:51:27.835Z,5.25
2022-11-16T18:53:56.088Z,5.10
2022-11-16T18:56:24.796Z,5.85
2022-11-16T18:58:53.305Z,5.55
2022-11-16T19:01:24.773Z,5.28
2022-11-16T19:03:55.043Z,5.03
2022-11-16T19:06:23.793Z,5.00
2022-11-16T19:08:59.654Z,4.28
2022-11-16T19:11:28.748Z,4.50
2022-11-16T19:14:09.188Z,4.43
2022-11-16T19:16:37.771Z,4.18
2022-11-16T19:19:07.314Z,4.90
2022-11-16T19:21:34.972Z,4.35
2022-11-16T19:24:02.712Z,4.00
2022-11-16T19:26:30.405Z,4.20
2022-11-16T19:28:59.026Z,4.50
2022-11-16T19:31:30.069Z,4.17
2022-11-16T19:34:06.854Z,3.53
2022-11-16T19:36:36.602Z,3.38
2022-11-16T19:39:05.378Z,3.47
2022-11-16T19:41:33.038Z,3.30
2022-11-16T19:44:01.636Z,4.13
2022-11-16T19:46:32.637Z,4.00
2022-11-16T19:49:00.950Z,3.83
2022-11-16T19:51:33.789Z,3.42
2022-11-16T19:54:02.821Z,3.55
2022-11-16T19:56:30.987Z,4.20
2022-11-16T19:58:58.707Z,4.53
2022-11-16T20:01:28.970Z,3.42
2022-11-16T20:04:00.262Z,4.38
2022-11-16T20:06:31.286Z,3.78
2022-11-16T20:09:03.860Z,3.57
2022-11-16T20:11:46.124Z,3.42
2022-11-16T20:14:14.859Z,3.97
2022-11-16T20:16:46.382Z,3.60
2022-11-16T20:19:14.810Z,3.72
2022-11-16T20:21:43.952Z,4.00
2022-11-16T20:24:15.035Z,4.00
2022-11-16T20:26:46.351Z,3.47
2022-11-16T20:29:16.236Z,4.18
2022-11-16T20:31:45.356Z,3.55
2022-11-16T20:34:16.383Z,4.30
2022-11-16T20:36:47.231Z,3.85
2022-11-16T20:39:18.008Z,3.17
2022-11-16T20:41:46.157Z,3.80
2022-11-16T20:44:18.251Z,10.27
2022-11-16T20:46:46.274Z,5.07
2022-11-16T20:49:14.337Z,4.32
2022-11-16T20:51:42.160Z,9.98
2022-11-16T20:54:09.797Z,5.32
2022-11-16T20:56:37.605Z,5.80
2022-11-16T20:59:05.393Z,4.47
2022-11-16T21:01:33.166Z,4.32
2022-11-16T21:04:04.482Z,4.10
2022-11-16T21:06:32.800Z,22.08
2022-11-16T21:09:00.854Z,11.40
2022-11-16T21:11:30.802Z,4.57
2022-11-16T21:14:16.665Z,8.00
2022-11-16T21:16:44.855Z,5.28
2022-11-16T21:19:12.870Z,3.80
2022-11-16T21:21:40.826Z,4.28
2022-11-16T21:24:09.525Z,4.80
2022-11-16T21:26:38.093Z,6.68
2022-11-16T21:29:06.522Z,4.28
2022-11-16T21:31:36.653Z,4.70
2022-11-16T21:34:05.703Z,3.88
2022-11-16T21:36:33.848Z,4.47
2022-11-16T21:39:01.599Z,3.85
2022-11-16T21:41:29.419Z,3.83
2022-11-16T21:43:57.198Z,3.92
2022-11-16T21:46:26.637Z,4.25
2022-11-16T21:48:56.244Z,4.27
2022-11-16T21:51:27.021Z,4.80
2022-11-16T21:53:55.901Z,4.47
2022-11-16T21:56:26.308Z,4.22
2022-11-16T21:58:54.713Z,3.88
2022-11-16T22:01:23.661Z,3.80
2022-11-16T22:04:10.388Z,3.65
2022-11-16T22:06:56.409Z,4.35
2022-11-16T22:09:24.145Z,4.00
2022-11-16T22:11:51.804Z,4.13
2022-11-16T22:14:19.478Z,4.13
2022-11-16T22:16:47.120Z,4.18
2022-11-16T22:19:14.766Z,3.92
2022-11-16T22:21:42.407Z,4.53
2022-11-16T22:24:10.041Z,3.88
2022-11-16T22:26:38.069Z,5.17
2022-11-16T22:29:05.764Z,3.90
2022-11-16T22:31:34.216Z,4.35
2022-11-16T22:34:01.859Z,4.15
2022-11-16T22:36:29.503Z,4.20
2022-11-16T22:38:57.174Z,3.90
2022-11-16T22:41:24.857Z,4.47
2022-11-16T22:43:52.543Z,4.15
2022-11-16T22:46:20.220Z,4.07
2022-11-16T22:48:47.970Z,5.10
2022-11-16T22:51:26.352Z,4.63
2022-11-16T22:54:02.237Z,4.35
2022-11-16T22:56:32.070Z,3.97
2022-11-16T22:59:02.413Z,4.88
2022-11-16T23:01:30.096Z,4.78
2022-11-16T23:03:58.407Z,4.80
2022-11-16T23:06:26.165Z,4.90
2022-11-16T23:08:54.001Z,4.80
2022-11-16T23:11:43.055Z,4.45
2022-11-16T23:14:35.897Z,4.53
2022-11-16T23:17:04.270Z,4.20
2022-11-16T23:19:52.136Z,5.10
2022-11-16T23:22:40.541Z,5.65
2022-11-16T23:25:29.751Z,5.05
2022-11-16T23:28:13.082Z,4.47
2022-11-16T23:30:40.882Z,5.27
2022-11-16T23:33:09.447Z,5.55
2022-11-16T23:35:37.278Z,5.72
2022-11-16T23:38:08.599Z,5.95
2022-11-16T23:40:39.319Z,4.43
2022-11-16T23:43:28.847Z,6.00
2022-11-16T23:45:56.518Z,4.68
2022-11-16T23:48:24.176Z,6.15
2022-11-16T23:50:51.822Z,5.65
2022-11-16T23:53:19.468Z,5.70
2022-11-16T23:55:47.533Z,5.37
2022-11-16T23:58:15.543Z,4.72
